Time;durP1;ratioP1;P1;durP2;ratioP2;P2;SDS_P1;SDS_P2;PMS_P1;PMS_P2;Temp;Humidity;BMP_temperature;BMP_pressure;BME280_temperature;BME280_humidity;BME280_pressure;Samples;Min_cycle;Max_cycle;Signal;HPM_P1;HPM_P2
2021/05/10 00:01:05;;;;;;;5.80;4.77;;;18.80;66.60;;;;;;6208356;23;20398;-85
2021/05/10 00:03:32;;;;;;;6.33;5.47;;;18.80;67.10;;;;;;6210087;23;20402;-85
2021/05/10 00:05:59;;;;;;;8.90;5.13;;;18.80;67.20;;;;;;6212333;23;20482;-86
2021/05/10 00:08:26;;;;;;;7.83;5.10;;;18.90;67.10;;;;;;6213689;23;20384;-86
2021/05/10 00:10:53;;;;;;;7.50;5.77;;;18.90;67.50;;;;;;6215600;23;20428;-85
2021/05/10 00:13:19;;;;;;;6.07;5.00;;;19.00;67.70;;;;;;6215718;23;20390;-85
2021/05/10 00:15:46;;;;;;;8.57;4.80;;;18.90;67.90;;;;;;6205662;23;20544;-87
2021/05/10 00:18:12;;;;;;;10.93;5.30;;;18.90;68.20;;;;;;6209444;23;20378;-85
2021/05/10 00:20:42;;;;;;;6.47;5.77;;;18.90;68.60;;;;;;6214930;23;20404;-85
2021/05/10 00:23:09;;;;;;;9.63;5.20;;;18.80;68.70;;;;;;6211997;23;20403;-87
2021/05/10 00:25:36;;;;;;;13.73;6.27;;;18.80;68.90;;;;;;6201441;23;20794;-87
2021/05/10 00:28:02;;;;;;;8.90;5.20;;;18.70;69.40;;;;;;6192545;23;20461;-86
2021/05/10 00:30:29;;;;;;;10.43;5.00;;;18.70;69.50;;;;;;6189818;23;20516;-86
2021/05/10 00:32:55;;;;;;;9.37;6.00;;;18.70;69.70;;;;;;6188141;23;20410;-87
2021/05/10 00:35:22;;;;;;;7.60;5.60;;;18.70;69.80;;;;;;6200381;23;20448;-86
2021/05/10 00:37:49;;;;;;;7.97;5.63;;;18.60;69.60;;;;;;6214185;23;20481;-84
2021/05/10 00:40:18;;;;;;;8.93;6.30;;;18.60;70.40;;;;;;6215154;23;20390;-84
2021/05/10 00:42:44;;;;;;;10.80;6.70;;;18.60;70.80;;;;;;6208049;23;20417;-85
2021/05/10 00:45:12;;;;;;;12.40;6.47;;;18.50;70.80;;;;;;6205356;23;20467;-85
2021/05/10 00:47:39;;;;;;;5.83;5.20;;;18.40;71.40;;;;;;6197088;23;20418;-87
2021/05/10 00:50:07;;;;;;;7.03;6.07;;;18.40;71.80;;;;;;6192291;23;20997;-86
2021/05/10 00:52:34;;;;;;;9.80;6.03;;;18.40;72.10;;;;;;6189438;23;20441;-87
2021/05/10 00:55:01;;;;;;;8.47;6.53;;;18.40;72.30;;;;;;6197215;23;20452;-86
2021/05/10 00:57:32;;;;;;;10.40;6.60;;;18.40;72.70;;;;;;6200813;23;20754;-86
2021/05/10 00:59:58;;;;;;;8.30;6.70;;;18.30;73.10;;;;;;6190367;23;20417;-86
2021/05/10 01:02:25;;;;;;;7.57;6.73;;;18.30;73.40;;;;;;6189814;23;20774;-86
2021/05/10 01:04:51;;;;;;;9.00;7.23;;;18.20;73.70;;;;;;6194059;23;20722;-86
2021/05/10 01:07:18;;;;;;;9.23;6.87;;;18.10;74.10;;;;;;6210858;23;20430;-87
2021/05/10 01:09:44;;;;;;;11.47;7.87;;;18.00;74.90;;;;;;6190605;23;20412;-87
2021/05/10 01:12:11;;;;;;;7.90;6.70;;;18.00;75.40;;;;;;6188154;23;20398;-87
2021/05/10 01:14:38;;;;;;;13.87;6.93;;;18.00;76.00;;;;;;6186162;23;20456;-86
2021/05/10 01:17:04;;;;;;;9.47;7.60;;;17.80;75.80;;;;;;6209884;23;20440;-85
2021/05/10 01:19:32;;;;;;;8.73;6.50;;;17.80;77.10;;;;;;6203302;23;20428;-87
2021/05/10 01:21:59;;;;;;;13.80;7.33;;;17.70;76.80;;;;;;6198071;23;20410;-88
2021/05/10 01:24:27;;;;;;;8.60;7.70;;;17.70;77.40;;;;;;6209727;23;20384;-86
2021/05/10 01:26:53;;;;;;;6.73;6.10;;;17.50;77.80;;;;;;6198573;23;20422;-87
2021/05/10 01:29:20;;;;;;;7.50;6.70;;;17.50;78.20;;;;;;6194353;23;20916;-87
2021/05/10 01:31:46;;;;;;;9.17;7.10;;;17.50;77.90;;;;;;6194166;23;20402;-87
2021/05/10 01:34:12;;;;;;;8.23;7.30;;;17.50;78.30;;;;;;6193100;23;20396;-86
2021/05/10 01:36:38;;;;;;;7.03;6.33;;;17.50;78.20;;;;;;6191740;23;20956;-87
2021/05/10 01:39:06;;;;;;;10.00;7.00;;;17.50;78.40;;;;;;6199627;23;20406;-87
2021/05/10 01:41:33;;;;;;;7.30;6.47;;;17.30;78.90;;;;;;6212292;23;20469;-87
2021/05/10 01:43:59;;;;;;;9.30;7.10;;;17.20;79.30;;;;;;6212316;23;20386;-87
2021/05/10 01:46:26;;;;;;;10.03;9.03;;;17.10;79.60;;;;;;6200464;23;20414;-87
2021/05/10 01:48:52;;;;;;;8.50;7.70;;;17.10;80.20;;;;;;6201899;23;20433;-87
2021/05/10 01:51:23;;;;;;;8.87;7.03;;;17.20;80.40;;;;;;6190326;23;20468;-87
2021/05/10 01:53:49;;;;;;;8.50;6.90;;;17.20;80.80;;;;;;6189033;23;20433;-87
2021/05/10 01:56:15;;;;;;;9.33;6.73;;;17.10;81.10;;;;;;6187722;23;20524;-87
2021/05/10 01:58:49;;;;;;;8.10;6.80;;;17.10;81.10;;;;;;6188405;23;20416;-87
2021/05/10 02:01:15;;;;;;;6.70;6.10;;;17.10;82.30;;;;;;6187929;23;20386;-87
2021/05/10 02:03:41;;;;;;;8.93;6.60;;;17.00;81.00;;;;;;6188121;23;20406;-87
2021/05/10 02:06:08;;;;;;;6.57;5.97;;;16.90;81.30;;;;;;6188148;23;20418;-87
2021/05/10 02:08:34;;;;;;;8.53;5.87;;;16.80;81.30;;;;;;6197682;23;20410;-87
2021/05/10 02:11:00;;;;;;;9.47;6.17;;;16.90;81.50;;;;;;6189198;23;20436;-86
2021/05/10 02:13:27;;;;;;;9.80;6.53;;;16.80;81.60;;;;;;6188545;23;20413;-86
2021/05/10 02:15:58;;;;;;;7.17;5.93;;;16.70;82.00;;;;;;6187010;23;20509;-87
2021/05/10 02:18:27;;;;;;;8.07;6.50;;;16.60;82.90;;;;;;6194999;23;20394;-87
2021/05/10 02:20:54;;;;;;;9.53;6.30;;;16.60;83.60;;;;;;6210051;23;20481;-85
2021/05/10 02:23:21;;;;;;;7.87;6.27;;;16.70;83.80;;;;;;6197419;23;20397;-87
2021/05/10 02:25:49;;;;;;;7.30;6.60;;;16.70;84.20;;;;;;6187974;23;20414;-87
2021/05/10 02:28:19;;;;;;;7.50;6.80;;;16.70;84.30;;;;;;6187134;23;20409;-86
2021/05/10 02:30:47;;;;;;;8.07;6.23;;;16.70;84.50;;;;;;6187952;23;20417;-86
2021/05/10 02:33:15;;;;;;;8.70;6.27;;;16.70;84.50;;;;;;6187907;23;20742;-86
2021/05/10 02:35:42;;;;;;;10.87;7.37;;;16.60;85.10;;;;;;6191114;23;20447;-85
2021/05/10 02:38:11;;;;;;;7.90;6.90;;;16.60;85.10;;;;;;6212399;23;20376;-86
2021/05/10 02:40:38;;;;;;;11.40;6.00;;;16.60;85.60;;;;;;6204728;23;20406;-87
2021/05/10 02:43:04;;;;;;;10.40;6.33;;;16.60;85.70;;;;;;6213540;23;20411;-84
2021/05/10 02:45:31;;;;;;;6.93;5.60;;;16.50;86.40;;;;;;6209932;23;20408;-87
2021/05/10 02:47:58;;;;;;;5.97;5.40;;;16.30;87.70;;;;;;6192476;23;20414;-86
2021/05/10 02:50:27;;;;;;;7.60;5.23;;;16.20;88.40;;;;;;6188878;23;20410;-85
2021/05/10 02:52:54;;;;;;;6.63;6.03;;;16.20;88.90;;;;;;6188501;23;20406;-86
2021/05/10 02:55:21;;;;;;;10.50;6.53;;;16.30;89.00;;;;;;6198518;23;20999;-85
2021/05/10 02:57:49;;;;;;;8.73;5.07;;;16.40;88.70;;;;;;6205456;23;20432;-86
2021/05/10 03:00:18;;;;;;;7.60;5.20;;;16.30;88.70;;;;;;6207389;23;20502;-86
2021/05/10 03:02:44;;;;;;;10.00;5.60;;;16.20;89.10;;;;;;6203420;23;20409;-86
2021/05/10 03:05:12;;;;;;;8.80;5.67;;;16.10;89.60;;;;;;6198264;23;20398;-86
2021/05/10 03:07:39;;;;;;;8.90;6.60;;;16.10;90.10;;;;;;6206685;23;20437;-87
2021/05/10 03:10:08;;;;;;;9.23;6.23;;;16.00;89.60;;;;;;6201765;23;20402;-86
2021/05/10 03:12:35;;;;;;;7.40;6.63;;;16.10;90.10;;;;;;6197312;23;20409;-88
2021/05/10 03:15:01;;;;;;;8.47;7.47;;;16.10;90.00;;;;;;6186918;23;20425;-88
2021/05/10 03:17:27;;;;;;;8.23;6.23;;;16.00;90.30;;;;;;6187435;23;20801;-88
2021/05/10 03:19:53;;;;;;;9.63;7.13;;;16.00;90.50;;;;;;6186814;23;20460;-87
2021/05/10 03:22:37;;;;;;;9.80;6.10;;;15.90;90.50;;;;;;6185335;23;20456;-88
2021/05/10 03:25:08;;;;;;;9.70;7.03;;;15.90;90.70;;;;;;6185669;23;20402;-88
2021/05/10 03:27:40;;;;;;;8.60;6.53;;;15.90;90.90;;;;;;6203552;23;20468;-87
2021/05/10 03:30:17;;;;;;;9.83;5.57;;;15.90;90.80;;;;;;6198228;23;20387;-90
2021/05/10 03:33:07;;;;;;;9.30;5.37;;;15.80;90.70;;;;;;6199949;23;20484;-88
2021/05/10 03:35:40;;;;;;;8.73;5.03;;;15.90;90.60;;;;;;6202132;23;20442;-88
2021/05/10 03:38:12;;;;;;;7.07;5.00;;;15.90;90.30;;;;;;6187998;23;20827;-88
2021/05/10 03:40:52;;;;;;;8.77;5.03;;;15.90;90.40;;;;;;6185280;23;20430;-88
2021/05/10 03:43:21;;;;;;;6.70;5.07;;;16.00;90.00;;;;;;6203990;23;20401;-88
2021/05/10 03:45:58;;;;;;;5.33;4.47;;;16.10;88.90;;;;;;6190279;23;20795;-88
2021/05/10 03:48:27;;;;;;;8.53;4.33;;;16.10;88.60;;;;;;6190420;23;20405;-87
2021/05/10 03:50:56;;;;;;;7.03;3.87;;;16.10;88.70;;;;;;6188478;23;20417;-89
2021/05/10 03:53:31;;;;;;;5.00;4.50;;;16.20;88.50;;;;;;6205032;23;20425;-88
2021/05/10 03:56:10;;;;;;;7.10;4.30;;;16.20;88.40;;;;;;6211502;23;20476;-86
2021/05/10 03:58:39;;;;;;;10.30;4.67;;;16.30;88.50;;;;;;6213333;23;20385;-86
2021/05/10 04:01:11;;;;;;;5.50;4.90;;;16.40;88.20;;;;;;6202016;23;20402;-88
2021/05/10 04:03:45;;;;;;;8.80;5.80;;;16.50;87.90;;;;;;6209421;23;20413;-88
2021/05/10 04:15:04;;;;;;;8.20;5.77;;;16.60;86.60;;;;;;6101618;23;20479;-88
2021/05/10 04:17:45;;;;;;;6.17;4.90;;;16.50;84.40;;;;;;6188738;23;20444;-88
2021/05/10 04:20:24;;;;;;;10.50;6.43;;;16.60;83.90;;;;;;6189816;23;20440;-88
2021/05/10 04:23:03;;;;;;;7.67;5.90;;;16.60;84.10;;;;;;6188360;23;20394;-88
2021/05/10 04:25:39;;;;;;;7.40;4.53;;;16.80;83.50;;;;;;6187650;23;20374;-88
2021/05/10 04:28:07;;;;;;;12.77;6.30;;;16.80;82.60;;;;;;6188037;23;20445;-88
2021/05/10 04:30:55;;;;;;;11.97;6.57;;;16.80;82.20;;;;;;6187469;23;20417;-88
2021/05/10 04:33:42;;;;;;;11.97;6.80;;;16.90;82.20;;;;;;6201211;23;20401;-88
2021/05/10 04:36:11;;;;;;;8.87;6.10;;;17.00;81.60;;;;;;6190086;23;20510;-87
2021/05/10 04:38:51;;;;;;;8.90;6.60;;;17.10;81.30;;;;;;6208011;23;20402;-87
2021/05/10 04:41:26;;;;;;;9.57;6.60;;;17.20;81.10;;;;;;6209038;23;20374;-87
2021/05/10 04:44:04;;;;;;;13.33;6.70;;;17.20;81.30;;;;;;6214710;23;20431;-86
2021/05/10 04:46:34;;;;;;;9.23;6.20;;;17.20;81.10;;;;;;6207043;23;20584;-88
2021/05/10 04:49:18;;;;;;;9.63;5.83;;;17.30;80.50;;;;;;6203556;23;20417;-88
2021/05/10 04:51:56;;;;;;;6.03;4.80;;;17.30;80.00;;;;;;6204339;23;20396;-88
2021/05/10 04:54:33;;;;;;;6.90;4.60;;;17.30;77.90;;;;;;6195536;23;20390;-88
2021/05/10 04:57:31;;;;;;;8.90;5.13;;;17.50;77.00;;;;;;6192203;23;20472;-88
2021/05/10 05:00:14;;;;;;;5.87;4.83;;;17.60;76.20;;;;;;6191950;23;20749;-88
2021/05/10 05:02:48;;;;;;;6.90;4.27;;;17.70;75.00;;;;;;6195487;23;20377;-88
2021/05/10 05:05:26;;;;;;;9.47;4.90;;;17.80;73.30;;;;;;6197240;23;20464;-88
2021/05/10 05:08:01;;;;;;;8.33;6.17;;;18.00;72.40;;;;;;6211534;23;20433;-87
2021/05/10 05:10:54;;;;;;;13.90;6.63;;;18.20;71.60;;;;;;6213788;23;20397;-86
2021/05/10 05:13:37;;;;;;;13.50;6.20;;;18.40;71.60;;;;;;6214138;23;20386;-86
2021/05/10 05:16:16;;;;;;;11.20;6.03;;;18.60;71.70;;;;;;6213406;23;20525;-85
2021/05/10 05:18:48;;;;;;;9.17;5.30;;;18.70;72.00;;;;;;6213593;23;20414;-85
2021/05/10 05:21:16;;;;;;;6.40;5.73;;;18.70;71.10;;;;;;6213803;23;20703;-86
2021/05/10 05:23:53;;;;;;;12.60;7.40;;;18.80;71.10;;;;;;6213214;23;20415;-87
2021/05/10 05:26:30;;;;;;;7.47;6.50;;;18.80;70.10;;;;;;6192726;23;20436;-88
2021/05/10 05:29:04;;;;;;;12.30;7.30;;;18.80;70.40;;;;;;6191663;23;20847;-88
2021/05/10 05:31:37;;;;;;;12.20;8.40;;;18.80;70.80;;;;;;6190008;23;20414;-87
2021/05/10 05:34:15;;;;;;;9.57;7.20;;;18.80;71.60;;;;;;6191248;23;20442;-88
2021/05/10 05:36:41;;;;;;;9.13;5.63;;;18.80;70.80;;;;;;6198580;23;20461;-87
2021/05/10 05:39:08;;;;;;;10.93;6.47;;;18.80;70.10;;;;;;6204989;23;20398;-87
2021/05/10 05:41:35;;;;;;;14.47;7.10;;;19.00;70.20;;;;;;6189439;23;20904;-88
2021/05/10 05:44:02;;;;;;;11.47;7.13;;;19.10;71.10;;;;;;6187380;23;20410;-88
2021/05/10 05:46:29;;;;;;;14.13;7.87;;;19.20;70.50;;;;;;6186898;23;20415;-88
2021/05/10 05:48:56;;;;;;;12.43;8.17;;;19.30;70.50;;;;;;6187407;23;20548;-87
2021/05/10 05:51:23;;;;;;;21.33;8.30;;;19.40;69.20;;;;;;6188597;23;20818;-87
2021/05/10 05:53:52;;;;;;;16.70;7.13;;;19.50;69.90;;;;;;6201945;23;20449;-86
2021/05/10 05:56:19;;;;;;;13.97;7.00;;;19.60;70.00;;;;;;6213534;23;20489;-86
2021/05/10 05:58:46;;;;;;;12.80;6.90;;;19.80;69.80;;;;;;6195645;23;20445;-88
2021/05/10 06:01:12;;;;;;;11.50;8.00;;;19.90;68.00;;;;;;6212189;23;20411;-87
2021/05/10 06:03:38;;;;;;;22.20;7.70;;;19.90;68.60;;;;;;6213983;23;20393;-87
2021/05/10 06:06:05;;;;;;;12.87;7.47;;;20.00;69.00;;;;;;6197371;23;20746;-88
2021/05/10 06:08:32;;;;;;;13.23;6.20;;;20.10;69.40;;;;;;6186992;23;20406;-88
2021/05/10 06:10:58;;;;;;;17.00;6.67;;;20.10;69.80;;;;;;6187353;23;20413;-88
2021/05/10 06:13:24;;;;;;;6.07;5.13;;;20.10;70.10;;;;;;6187555;23;20415;-87
2021/05/10 06:15:50;;;;;;;6.93;6.20;;;20.10;71.00;;;;;;6190265;23;20435;-87
2021/05/10 06:18:17;;;;;;;14.20;6.30;;;20.10;70.40;;;;;;6190414;23;20727;-88
2021/05/10 06:20:43;;;;;;;9.90;6.33;;;20.10;70.90;;;;;;6188278;23;20422;-88
2021/05/10 06:23:10;;;;;;;12.70;6.50;;;20.10;71.30;;;;;;6190386;23;20411;-88
2021/05/10 06:25:36;;;;;;;13.43;6.57;;;20.20;71.70;;;;;;6186907;23;20405;-88
2021/05/10 06:28:03;;;;;;;13.73;6.10;;;20.30;71.60;;;;;;6191087;23;20415;-89
2021/05/10 06:30:29;;;;;;;8.10;5.13;;;20.20;72.20;;;;;;6200229;23;20434;-88
2021/05/10 06:32:55;;;;;;;7.10;4.30;;;20.20;70.60;;;;;;6207459;23;20490;-88
2021/05/10 06:35:22;;;;;;;6.93;4.43;;;20.10;69.70;;;;;;6195054;23;20442;-89
2021/05/10 06:37:48;;;;;;;7.03;5.00;;;20.30;69.50;;;;;;6188888;23;20435;-89
2021/05/10 06:40:16;;;;;;;5.20;4.03;;;20.40;69.40;;;;;;6201139;23;20452;-87
2021/05/10 06:42:42;;;;;;;5.40;4.00;;;20.60;68.30;;;;;;6203760;23;20396;-88
2021/05/10 06:45:09;;;;;;;7.93;4.20;;;20.80;68.30;;;;;;6207299;23;20475;-88
2021/05/10 06:47:39;;;;;;;8.07;4.60;;;21.30;67.30;;;;;;6211022;23;20463;-87
2021/05/10 06:50:06;;;;;;;8.20;4.97;;;21.60;66.10;;;;;;6207359;23;20487;-88
2021/05/10 06:52:34;;;;;;;7.60;4.27;;;21.70;65.10;;;;;;6191982;23;20421;-90
2021/05/10 06:55:00;;;;;;;6.70;4.30;;;22.00;65.00;;;;;;6206149;23;20416;-89
2021/05/10 06:57:27;;;;;;;7.93;4.00;;;22.30;63.90;;;;;;6206292;23;20526;-89
2021/05/10 06:59:54;;;;;;;6.80;4.30;;;22.50;62.40;;;;;;6192354;23;20405;-90
2021/05/10 07:02:22;;;;;;;5.77;4.80;;;22.80;61.60;;;;;;6194974;23;20721;-89
2021/05/10 07:04:49;;;;;;;5.43;3.43;;;23.00;61.20;;;;;;6198975;23;20406;-89
2021/05/10 07:07:15;;;;;;;5.93;3.47;;;23.30;60.40;;;;;;6211942;23;20473;-89
2021/05/10 07:09:42;;;;;;;4.90;3.10;;;23.40;59.40;;;;;;6194349;23;20404;-89
2021/05/10 07:12:11;;;;;;;9.83;3.70;;;23.50;58.30;;;;;;6198392;23;20484;-87
2021/05/10 07:14:38;;;;;;;6.23;3.37;;;23.60;58.00;;;;;;6211669;23;20471;-87
2021/05/10 07:17:07;;;;;;;8.37;2.83;;;23.70;57.40;;;;;;6193622;23;20506;-93
2021/05/10 07:19:34;;;;;;;4.23;3.20;;;23.70;57.60;;;;;;6190628;23;20405;-90
2021/05/10 07:22:00;;;;;;;5.47;3.07;;;24.10;57.10;;;;;;6205923;23;20423;-87
2021/05/10 07:24:27;;;;;;;5.27;3.53;;;24.50;56.10;;;;;;6194456;23;20398;-88
2021/05/10 07:26:53;;;;;;;6.33;3.00;;;25.30;61.20;;;;;;6190583;23;20820;-90
2021/05/10 07:29:19;;;;;;;6.80;3.60;;;26.70;70.10;;;;;;6188910;23;20536;-89
2021/05/10 07:31:46;;;;;;;3.50;3.03;;;27.90;51.90;;;;;;6191359;23;20911;-90
2021/05/10 07:34:12;;;;;;;4.77;2.90;;;29.30;47.90;;;;;;6190860;23;20424;-90
2021/05/10 07:36:40;;;;;;;6.60;3.50;;;30.30;44.90;;;;;;6191750;23;20471;-89
2021/05/10 07:39:07;;;;;;;2.80;2.60;;;30.10;44.50;;;;;;6194632;23;20487;-89
2021/05/10 07:41:33;;;;;;;4.30;3.40;;;29.30;45.10;;;;;;6193120;23;20403;-89
2021/05/10 07:44:00;;;;;;;3.87;2.90;;;28.50;46.70;;;;;;6195105;23;20237;-89
2021/05/10 07:46:26;;;;;;;8.10;3.00;;;27.80;48.00;;;;;;6186519;23;20856;-87
2021/05/10 07:48:59;;;;;;;4.43;2.60;;;27.60;49.30;;;;;;6189443;23;20387;-92
2021/05/10 07:51:26;;;;;;;4.77;3.00;;;27.60;49.60;;;;;;6188473;23;20423;-88
2021/05/10 07:53:53;;;;;;;3.90;2.67;;;28.10;49.90;;;;;;6195069;23;20893;-85
2021/05/10 07:56:19;;;;;;;4.13;2.63;;;29.20;48.00;;;;;;6188238;23;20477;-87
2021/05/10 07:58:47;;;;;;;2.90;2.23;;;28.80;47.80;;;;;;6188091;23;21026;-87
2021/05/10 08:01:14;;;;;;;5.87;2.50;;;28.90;48.50;;;;;;6186262;23;20410;-87
2021/05/10 08:03:40;;;;;;;4.00;2.20;;;30.20;47.40;;;;;;6209578;23;20472;-86
2021/05/10 08:06:07;;;;;;;4.53;2.67;;;30.30;46.40;;;;;;6202771;23;20426;-88
2021/05/10 08:08:36;;;;;;;4.00;2.80;;;29.90;46.70;;;;;;6191395;23;20413;-87
2021/05/10 08:11:02;;;;;;;4.10;2.80;;;29.50;47.30;;;;;;6188321;23;20422;-86
2021/05/10 08:13:28;;;;;;;4.57;2.63;;;28.60;48.70;;;;;;6187377;23;20917;-86
2021/05/10 08:15:55;;;;;;;3.83;2.23;;;27.70;50.20;;;;;;6188467;23;20437;-85
2021/05/10 08:18:21;;;;;;;3.10;2.63;;;27.80;51.50;;;;;;6191528;23;20476;-86
2021/05/10 08:20:47;;;;;;;3.50;2.13;;;29.60;49.30;;;;;;6189373;23;20406;-86
2021/05/10 08:23:14;;;;;;;3.00;2.80;;;30.60;47.10;;;;;;6193600;23;20414;-87
2021/05/10 08:25:42;;;;;;;4.73;2.73;;;31.80;45.30;;;;;;6189491;23;20398;-86
2021/05/10 08:28:09;;;;;;;3.17;2.43;;;31.20;45.20;;;;;;6191632;23;20494;-86
2021/05/10 08:30:35;;;;;;;2.67;2.47;;;30.80;46.20;;;;;;6192098;23;20406;-86
2021/05/10 08:33:02;;;;;;;3.17;2.50;;;30.60;46.50;;;;;;6192528;23;20409;-87
2021/05/10 08:35:28;;;;;;;6.77;2.80;;;30.10;46.70;;;;;;6195698;23;20449;-87
2021/05/10 08:37:55;;;;;;;3.20;2.53;;;29.00;48.40;;;;;;6191889;23;20441;-86
2021/05/10 08:40:22;;;;;;;2.60;2.33;;;28.20;50.20;;;;;;6206331;23;20395;-86
2021/05/10 08:42:48;;;;;;;4.97;2.77;;;27.80;51.20;;;;;;6212340;23;20412;-85
2021/05/10 08:45:19;;;;;;;6.10;2.57;;;27.30;52.00;;;;;;6194832;23;20412;-86
2021/05/10 08:47:45;;;;;;;5.10;2.80;;;26.80;52.90;;;;;;6211544;23;20388;-85
2021/05/10 08:50:12;;;;;;;2.80;2.43;;;26.10;53.80;;;;;;6199556;23;20745;-85
2021/05/10 08:52:38;;;;;;;3.70;3.13;;;25.50;54.50;;;;;;6190883;23;20492;-87
2021/05/10 08:55:06;;;;;;;3.37;2.60;;;25.30;55.00;;;;;;6196363;23;20411;-86
2021/05/10 08:57:34;;;;;;;3.37;2.13;;;25.60;55.40;;;;;;6210109;23;20519;-86
2021/05/10 09:00:00;;;;;;;2.90;2.30;;;26.50;53.90;;;;;;6196835;23;20429;-87
2021/05/10 09:02:30;;;;;;;2.90;2.40;;;27.20;52.40;;;;;;6202593;23;20432;-87
2021/05/10 09:05:10;;;;;;;5.03;2.63;;;27.50;51.90;;;;;;6193480;23;20406;-86
2021/05/10 09:07:36;;;;;;;5.63;3.10;;;27.20;52.40;;;;;;6190688;23;20506;-86
2021/05/10 09:10:06;;;;;;;4.40;2.57;;;26.90;53.30;;;;;;6191287;23;20452;-86
2021/05/10 09:12:48;;;;;;;5.03;3.10;;;26.50;54.20;;;;;;6189894;23;20771;-87
2021/05/10 09:15:23;;;;;;;4.40;2.50;;;26.50;54.70;;;;;;6193529;23;20386;-87
2021/05/10 09:17:50;;;;;;;5.93;2.50;;;26.60;54.80;;;;;;6194206;23;20481;-87
2021/05/10 09:20:19;;;;;;;4.20;2.30;;;26.90;54.30;;;;;;6191819;23;20461;-86
2021/05/10 09:22:50;;;;;;;5.70;3.70;;;26.80;53.90;;;;;;6192489;23;20419;-86
2021/05/10 09:25:17;;;;;;;5.00;3.77;;;26.90;54.20;;;;;;6191813;23;20408;-87
2021/05/10 09:27:44;;;;;;;2.93;2.40;;;26.60;54.60;;;;;;6191997;23;20448;-87
2021/05/10 09:30:19;;;;;;;6.53;3.03;;;26.60;55.00;;;;;;6190544;23;20583;-87
2021/05/10 09:32:50;;;;;;;6.33;2.60;;;26.50;55.10;;;;;;6191949;23;20393;-86
2021/05/10 09:35:21;;;;;;;5.60;2.60;;;26.60;55.00;;;;;;6199893;23;20441;-86
2021/05/10 09:38:00;;;;;;;5.27;2.47;;;27.20;53.90;;;;;;6199671;23;20494;-87
2021/05/10 09:40:29;;;;;;;5.53;2.13;;;27.30;53.20;;;;;;6202689;23;20416;-87
2021/05/10 09:42:57;;;;;;;3.03;1.80;;;27.60;52.80;;;;;;6195469;23;20464;-86
2021/05/10 09:45:34;;;;;;;3.03;2.70;;;28.20;51.80;;;;;;6189926;23;20923;-85
2021/05/10 09:48:09;;;;;;;2.80;2.30;;;29.90;50.00;;;;;;6188281;23;20782;-87
2021/05/10 09:50:36;;;;;;;2.70;2.40;;;31.60;46.40;;;;;;6190156;23;20390;-87
2021/05/10 09:53:03;;;;;;;4.83;1.83;;;32.30;44.40;;;;;;6188825;23;20414;-87
2021/05/10 09:55:42;;;;;;;11.03;1.77;;;33.10;43.40;;;;;;6194816;23;20398;-87
2021/05/10 09:58:09;;;;;;;3.77;2.07;;;34.00;41.90;;;;;;6204262;23;20408;-87
2021/05/10 10:00:35;;;;;;;3.30;1.90;;;34.30;41.30;;;;;;6188095;23;20409;-87
2021/05/10 10:03:01;;;;;;;3.90;1.50;;;34.00;40.30;;;;;;6193185;23;20402;-87
2021/05/10 10:05:29;;;;;;;2.57;1.47;;;33.90;40.50;;;;;;6185104;23;20462;-87
2021/05/10 10:07:57;;;;;;;3.17;1.67;;;33.90;40.10;;;;;;6202132;23;20432;-87
2021/05/10 10:10:24;;;;;;;3.80;1.73;;;33.90;39.70;;;;;;6212395;23;20449;-86
2021/05/10 10:12:50;;;;;;;2.60;1.27;;;33.20;40.20;;;;;;6197640;23;20402;-86
2021/05/10 10:15:17;;;;;;;2.80;1.77;;;32.20;40.90;;;;;;6205900;23;20398;-86
2021/05/10 10:17:45;;;;;;;2.20;1.57;;;30.60;43.00;;;;;;6199825;23;20445;-86
2021/05/10 10:20:13;;;;;;;4.50;1.37;;;29.40;44.90;;;;;;6198982;23;20402;-87
2021/05/10 10:22:39;;;;;;;1.20;1.07;;;28.40;46.70;;;;;;6197379;23;20524;-87
2021/05/10 10:25:07;;;;;;;3.10;1.50;;;27.70;48.70;;;;;;6198530;23;20406;-87
2021/05/10 10:27:35;;;;;;;2.10;1.30;;;27.30;49.40;;;;;;6193666;23;20422;-88
2021/05/10 10:30:02;;;;;;;2.40;1.67;;;26.60;50.20;;;;;;6194779;23;20395;-87
2021/05/10 10:32:30;;;;;;;2.00;1.50;;;26.40;50.80;;;;;;6198864;23;20409;-87
2021/05/10 10:34:57;;;;;;;4.20;1.10;;;26.20;51.50;;;;;;6201940;23;20417;-86
2021/05/10 10:37:26;;;;;;;2.10;1.63;;;26.20;51.70;;;;;;6210754;23;20502;-85
2021/05/10 10:39:56;;;;;;;1.70;1.10;;;26.20;51.90;;;;;;6210971;23;20429;-86
2021/05/10 10:42:25;;;;;;;3.80;1.27;;;25.90;52.60;;;;;;6200821;23;20466;-86
2021/05/10 10:44:55;;;;;;;2.03;1.40;;;25.80;52.80;;;;;;6207562;23;20429;-85
2021/05/10 10:47:46;;;;;;;3.77;1.47;;;26.10;52.60;;;;;;6210655;23;20418;-86
2021/05/10 10:50:15;;;;;;;3.80;1.10;;;26.40;52.40;;;;;;6207998;23;20387;-86
2021/05/10 10:52:50;;;;;;;2.87;1.47;;;26.80;51.80;;;;;;6211078;23;20425;-86
2021/05/10 10:55:19;;;;;;;1.53;1.13;;;26.60;51.40;;;;;;6201475;23;20405;-89
2021/05/10 10:57:47;;;;;;;3.63;1.47;;;26.40;52.20;;;;;;6195385;23;20422;-86
2021/05/10 11:00:15;;;;;;;2.23;1.20;;;26.20;52.60;;;;;;6195312;23;20401;-86
2021/05/10 11:02:44;;;;;;;2.90;1.20;;;26.20;53.00;;;;;;6194974;23;20401;-86
2021/05/10 11:05:13;;;;;;;1.70;1.23;;;26.40;52.80;;;;;;6197837;23;20402;-86
2021/05/10 11:07:57;;;;;;;2.30;1.67;;;26.60;52.60;;;;;;6192659;23;20424;-86
2021/05/10 11:10:48;;;;;;;1.40;1.10;;;26.50;53.10;;;;;;6189233;23;20462;-87
2021/05/10 11:13:37;;;;;;;3.50;1.90;;;26.30;52.90;;;;;;6199464;23;20386;-87
2021/05/10 11:16:05;;;;;;;3.73;2.40;;;26.30;53.30;;;;;;6205954;23;20788;-85
2021/05/10 11:18:47;;;;;;;2.20;1.40;;;26.10;53.60;;;;;;6193669;23;20911;-86
2021/05/10 11:21:39;;;;;;;3.10;1.37;;;25.80;54.10;;;;;;6192476;23;20390;-86
2021/05/10 11:24:09;;;;;;;1.53;1.20;;;25.40;54.60;;;;;;6189554;23;20492;-87
2021/05/10 11:26:38;;;;;;;1.70;1.50;;;25.10;54.70;;;;;;6193003;23;20808;-88
2021/05/10 11:29:07;;;;;;;1.87;1.47;;;25.00;55.30;;;;;;6197341;23;20488;-86
2021/05/10 11:31:37;;;;;;;2.50;1.20;;;24.80;55.50;;;;;;6201515;23;20389;-84
2021/05/10 11:34:12;;;;;;;4.50;1.30;;;24.60;55.50;;;;;;6211145;23;20437;-84
2021/05/10 11:36:47;;;;;;;1.50;1.10;;;24.50;55.70;;;;;;6191363;23;20543;-86
2021/05/10 11:39:20;;;;;;;4.10;1.90;;;24.50;56.30;;;;;;6194352;23;20425;-87
2021/05/10 11:41:47;;;;;;;2.77;1.07;;;24.50;55.80;;;;;;6196320;23;20392;-86
2021/05/10 11:44:21;;;;;;;2.23;1.20;;;24.30;55.30;;;;;;6190138;23;20462;-86
2021/05/10 11:46:49;;;;;;;1.40;1.17;;;24.30;55.50;;;;;;6186857;23;20424;-86
2021/05/10 11:49:31;;;;;;;1.23;1.00;;;24.40;55.50;;;;;;6187389;23;20408;-87
2021/05/10 11:51:59;;;;;;;4.10;1.20;;;24.40;55.00;;;;;;6188879;23;20419;-86
2021/05/10 11:54:28;;;;;;;1.90;1.03;;;24.40;54.70;;;;;;6190616;23;20407;-86
2021/05/10 11:56:56;;;;;;;4.30;1.10;;;24.50;54.50;;;;;;6190616;23;20443;-87
2021/05/10 12:02:21;;;;;;;2.00;1.03;;;24.50;54.90;;;;;;6195340;23;20424;-86
2021/05/10 12:04:51;;;;;;;2.03;1.00;;;24.40;54.40;;;;;;6189025;23;20419;-86
2021/05/10 12:07:18;;;;;;;1.80;0.73;;;24.20;54.20;;;;;;6187974;23;20421;-86
2021/05/10 12:09:46;;;;;;;1.40;0.93;;;24.00;54.50;;;;;;6188726;23;20415;-87
2021/05/10 12:12:37;;;;;;;2.30;1.03;;;24.00;54.90;;;;;;6201091;23;20748;-87
2021/05/10 12:15:25;;;;;;;1.13;1.03;;;24.00;55.00;;;;;;6181568;23;20412;-87
2021/05/10 12:17:53;;;;;;;1.20;1.07;;;23.90;55.10;;;;;;6200119;23;21010;-87
2021/05/10 12:20:22;;;;;;;2.27;1.17;;;23.80;55.40;;;;;;6196132;23;20410;-87
2021/05/10 12:22:50;;;;;;;1.53;0.93;;;23.70;55.20;;;;;;6188131;23;20409;-85
2021/05/10 12:25:21;;;;;;;1.30;1.03;;;23.50;55.10;;;;;;6206682;23;20427;-87
2021/05/10 12:27:55;;;;;;;1.40;0.80;;;23.50;55.20;;;;;;6212064;23;20486;-88
2021/05/10 12:30:25;;;;;;;1.20;1.00;;;23.60;55.40;;;;;;6200262;23;20870;-86
2021/05/10 12:32:54;;;;;;;6.33;1.07;;;23.70;55.40;;;;;;6208529;23;20767;-87
2021/05/10 12:35:24;;;;;;;2.50;1.03;;;23.60;55.40;;;;;;6189761;23;20411;-85
2021/05/10 12:37:51;;;;;;;0.90;0.63;;;23.50;55.20;;;;;;6189445;23;20914;-88
2021/05/10 12:40:20;;;;;;;0.97;0.60;;;23.50;55.50;;;;;;6188928;23;20406;-85
2021/05/10 12:43:09;;;;;;;2.13;0.73;;;23.40;55.10;;;;;;6188780;23;20408;-87
2021/05/10 12:45:37;;;;;;;3.10;1.00;;;23.30;54.40;;;;;;6188323;23;20395;-88
2021/05/10 12:48:18;;;;;;;3.50;0.83;;;23.20;53.90;;;;;;6187258;23;20424;-87
2021/05/10 12:50:47;;;;;;;1.10;0.47;;;23.10;53.90;;;;;;6188511;23;20489;-87
2021/05/10 12:53:14;;;;;;;2.40;0.60;;;23.20;53.80;;;;;;6189260;23;20413;-87
2021/05/10 12:55:41;;;;;;;2.23;0.77;;;23.30;53.60;;;;;;6189432;23;20409;-85
2021/05/10 12:58:18;;;;;;;1.07;0.67;;;23.30;53.60;;;;;;6188018;23;20435;-87
2021/05/10 13:00:45;;;;;;;3.93;0.70;;;23.30;53.80;;;;;;6193265;23;20741;-87
2021/05/10 13:03:32;;;;;;;2.80;0.90;;;23.30;53.80;;;;;;6191649;23;20424;-86
2021/05/10 13:06:00;;;;;;;2.13;1.00;;;23.20;53.80;;;;;;6194509;23;20398;-86
2021/05/10 13:08:38;;;;;;;2.03;1.20;;;23.20;53.90;;;;;;6197047;23;20514;-84
2021/05/10 13:11:04;;;;;;;1.40;1.00;;;23.30;54.00;;;;;;6191445;23;20410;-86